createdAt,value
2017-03-22T00:00:15.102Z,6.09
2017-03-22T00:00:55.464Z,5.94
2017-03-22T00:01:35.905Z,6.01
2017-03-22T00:02:16.292Z,5.98
2017-03-22T00:02:56.696Z,5.99
2017-03-22T00:03:37.185Z,6.06
2017-03-22T00:04:17.490Z,5.99
2017-03-22T00:04:57.896Z,5.98
2017-03-22T00:05:38.281Z,6.05
2017-03-22T00:06:18.817Z,6.01
2017-03-22T00:06:59.248Z,5.99
2017-03-22T00:07:39.650Z,5.97
2017-03-22T00:08:20.045Z,6.01
2017-03-22T00:09:00.461Z,6.06
2017-03-22T04:16:10.213Z,5.54
2017-03-22T04:16:59.362Z,5.54
2017-03-22T04:17:47.781Z,5.54
2017-03-22T04:18:37.152Z,5.56
2017-03-22T04:19:25.377Z,5.54
2017-03-22T04:20:14.151Z,5.55
2017-03-22T04:21:02.868Z,5.58
2017-03-22T04:21:51.435Z,5.54
2017-03-22T04:22:39.541Z,5.55
2017-03-22T04:23:28.454Z,5.51
2017-03-22T04:24:16.945Z,5.56
2017-03-22T04:25:05.430Z,5.61
2017-03-22T04:25:53.822Z,5.55
2017-03-22T04:26:42.159Z,5.56
2017-03-22T04:27:31.210Z,5.62
2017-03-22T04:28:15.402Z,5.64
2017-03-22T04:28:57.346Z,5.55
2017-03-22T04:29:37.739Z,5.59
2017-03-22T04:30:18.157Z,5.56
2017-03-22T04:30:58.622Z,5.58
2017-03-22T04:31:39.036Z,5.58
2017-03-22T04:32:19.446Z,5.55
2017-03-22T04:33:00.011Z,5.62
2017-03-22T04:33:41.383Z,5.62
2017-03-22T04:34:21.866Z,5.64
2017-03-22T04:35:03.776Z,5.62
2017-03-22T04:35:44.213Z,5.65
2017-03-22T04:36:25.450Z,5.65
2017-03-22T04:37:05.845Z,5.67
2017-03-22T04:37:47.928Z,5.72
2017-03-22T04:39:37.210Z,5.7
2017-03-22T04:40:24.686Z,5.69
2017-03-22T04:41:13.875Z,5.61
2017-03-22T04:42:03.342Z,5.64
2017-03-22T04:43:09.216Z,5.59
2017-03-22T04:43:51.736Z,5.61
2017-03-22T04:44:32.126Z,5.64
2017-03-22T04:45:12.575Z,5.62
2017-03-22T04:45:52.979Z,5.69
2017-03-22T04:46:33.508Z,5.67
2017-03-22T04:47:13.884Z,5.69
2017-03-22T04:47:54.270Z,5.61
2017-03-22T04:48:34.694Z,5.55
2017-03-22T04:49:15.885Z,5.62
2017-03-22T04:49:56.265Z,5.62
2017-03-22T04:50:36.618Z,5.62
2017-03-22T04:51:17.923Z,5.62
2017-03-22T04:51:59.106Z,5.59
2017-03-22T04:52:40.168Z,5.62
2017-03-22T04:53:20.648Z,5.64
2017-03-22T04:54:01.636Z,5.61
2017-03-22T04:54:42.728Z,5.55
2017-03-22T04:55:23.088Z,5.59
2017-03-22T04:56:03.495Z,5.62
2017-03-22T04:56:43.929Z,5.62
2017-03-22T04:57:25.095Z,5.64
2017-03-22T04:58:05.495Z,5.51
2017-03-22T04:58:46.568Z,5.59
2017-03-22T04:59:27.004Z,5.52
2017-03-22T05:00:07.406Z,5.62
2017-03-22T05:00:47.827Z,5.58
2017-03-22T05:01:28.873Z,5.61
2017-03-22T05:02:10.195Z,5.59
2017-03-22T05:02:50.690Z,5.56
2017-03-22T05:03:31.055Z,5.61
2017-03-22T05:04:11.517Z,5.64
2017-03-22T05:04:52.001Z,5.64
2017-03-22T05:05:32.388Z,5.54
2017-03-22T05:06:14.260Z,5.67
2017-03-22T05:06:55.420Z,5.59
2017-03-22T05:07:35.833Z,5.62
2017-03-22T05:08:16.309Z,5.67
2017-03-22T05:08:56.705Z,5.59
2017-03-22T05:09:37.181Z,5.58
2017-03-22T05:10:17.519Z,5.64
2017-03-22T05:10:57.942Z,5.62
2017-03-22T05:11:38.354Z,5.65
2017-03-22T05:12:18.724Z,5.69
2017-03-22T05:12:59.162Z,5.56
2017-03-22T05:13:39.581Z,5.62
2017-03-22T05:14:19.989Z,5.59
2017-03-22T05:15:00.443Z,5.55
2017-03-22T05:15:40.834Z,5.61
2017-03-22T05:16:21.252Z,5.51
2017-03-22T05:17:01.632Z,5.59
2017-03-22T05:17:42.082Z,5.59
2017-03-22T05:18:22.428Z,5.56
2017-03-22T05:19:02.877Z,5.62
2017-03-22T05:19:43.288Z,5.59
2017-03-22T05:20:23.702Z,5.64
2017-03-22T05:21:04.105Z,5.51
2017-03-22T05:21:44.517Z,5.58
2017-03-22T05:22:24.996Z,5.62
2017-03-22T05:23:05.357Z,5.64
2017-03-22T05:23:45.734Z,5.62
2017-03-22T05:24:26.151Z,5.62
2017-03-22T05:25:06.637Z,5.64
2017-03-22T05:25:47.008Z,5.72
2017-03-22T05:26:27.497Z,5.62
2017-03-22T05:27:07.800Z,5.64
2017-03-22T05:27:48.531Z,5.61
2017-03-22T05:28:29.305Z,5.61
2017-03-22T05:29:09.793Z,5.65
2017-03-22T05:29:50.329Z,5.65
2017-03-22T05:30:30.736Z,5.69
2017-03-22T05:31:11.510Z,5.7
2017-03-22T05:31:51.951Z,5.59
2017-03-22T05:32:32.390Z,5.69
2017-03-22T05:33:12.782Z,5.59
2017-03-22T05:33:53.453Z,5.64
2017-03-22T05:34:35.124Z,5.69
2017-03-22T05:35:15.573Z,5.7
2017-03-22T05:35:56.009Z,5.79
2017-03-22T05:36:36.422Z,5.67
2017-03-22T05:37:16.828Z,5.65
2017-03-22T05:37:57.229Z,5.72
2017-03-22T05:38:37.856Z,5.72
2017-03-22T05:39:18.291Z,5.8
2017-03-22T05:39:59.732Z,5.74
2017-03-22T05:40:40.162Z,5.74
2017-03-22T05:41:22.250Z,5.79
2017-03-22T05:42:02.629Z,5.79
2017-03-22T05:42:43.355Z,5.8
2017-03-22T05:43:24.795Z,5.73
2017-03-22T05:44:05.213Z,5.74
2017-03-22T05:44:45.685Z,5.8
2017-03-22T05:47:00.804Z,5.81
2017-03-22T05:47:44.167Z,5.83
2017-03-22T05:48:24.532Z,5.7
2017-03-22T05:49:04.950Z,5.87
2017-03-22T05:49:48.115Z,5.79
2017-03-22T05:50:29.554Z,5.79
2017-03-22T05:51:16.388Z,5.8
2017-03-22T05:52:03.399Z,5.83
2017-03-22T05:52:48.389Z,5.79
2017-03-22T05:53:28.863Z,5.8
2017-03-22T05:54:10.934Z,5.81
2017-03-22T05:54:53.040Z,5.84
2017-03-22T05:55:33.542Z,5.83
2017-03-22T05:56:19.394Z,5.88
2017-03-22T05:57:01.393Z,5.88
2017-03-22T05:57:44.151Z,5.88
2017-03-22T05:58:27.870Z,5.9
2017-03-22T05:59:09.929Z,5.88
2017-03-22T05:59:52.194Z,5.95
2017-03-22T06:00:36.389Z,5.87
2017-03-22T06:01:19.751Z,5.88
2017-03-22T06:02:00.182Z,5.98
2017-03-22T06:02:42.367Z,5.94
2017-03-22T06:03:24.702Z,5.97
2017-03-22T06:04:10.546Z,5.84
2017-03-22T06:04:52.743Z,5.95
2017-03-22T06:05:39.893Z,5.95
2017-03-22T06:06:23.929Z,5.9
2017-03-22T06:07:08.960Z,5.88
2017-03-22T06:07:51.999Z,5.88
2017-03-22T06:08:34.010Z,5.81
2017-03-22T06:09:14.403Z,5.81
2017-03-22T06:09:54.904Z,5.87
2017-03-22T06:10:36.881Z,5.91
2017-03-22T06:11:19.190Z,5.9
2017-03-22T06:11:59.628Z,5.81
2017-03-22T06:12:40.129Z,5.9
2017-03-22T06:13:23.142Z,5.81
2017-03-22T06:14:03.519Z,5.91
2017-03-22T06:14:43.979Z,5.91
2017-03-22T06:15:27.983Z,5.79
2017-03-22T06:16:11.948Z,5.83
2017-03-22T06:16:55.128Z,5.9
2017-03-22T06:17:36.529Z,5.95
2017-03-22T06:18:20.720Z,5.92
2017-03-22T06:19:01.143Z,5.98
2017-03-22T06:19:46.885Z,5.95
2017-03-22T06:20:29.979Z,5.95
2017-03-22T06:21:17.038Z,5.91
2017-03-22T06:22:05.890Z,5.97
2017-03-22T06:22:49.115Z,5.97
2017-03-22T06:25:06.397Z,6.02
2017-03-22T06:25:50.309Z,5.99
2017-03-22T06:26:31.343Z,6.01
2017-03-22T06:27:12.444Z,5.98
2017-03-22T06:27:52.947Z,6.09
2017-03-22T06:28:33.873Z,6.02
2017-03-22T06:29:14.355Z,5.98
2017-03-22T06:29:54.867Z,5.98
2017-03-22T06:30:36.245Z,5.99
2017-03-22T06:31:17.469Z,5.99
2017-03-22T06:31:57.846Z,5.98
2017-03-22T06:32:38.234Z,5.91
2017-03-22T06:33:18.672Z,5.87
2017-03-22T06:33:59.079Z,5.83
2017-03-22T06:34:39.475Z,5.74
2017-03-22T06:35:20.665Z,5.8
2017-03-22T06:36:01.071Z,5.72
2017-03-22T06:36:41.499Z,5.72
2017-03-22T06:37:25.394Z,5.8
2017-03-22T06:38:05.781Z,5.72
2017-03-22T06:38:47.774Z,5.74
2017-03-22T06:39:28.744Z,5.74
2017-03-22T06:40:09.136Z,5.73
2017-03-22T06:40:49.512Z,5.72
2017-03-22T06:41:29.952Z,5.76
2017-03-22T06:42:10.318Z,5.73
2017-03-22T06:42:50.721Z,5.7
2017-03-22T06:45:04.620Z,5.59
2017-03-22T06:45:46.967Z,5.62
2017-03-22T06:46:30.107Z,5.54
2017-03-22T06:47:10.548Z,5.59
2017-03-22T06:47:50.990Z,5.62
2017-03-22T06:48:32.277Z,5.62
2017-03-22T06:49:13.215Z,5.61
2017-03-22T06:49:53.668Z,5.64
2017-03-22T06:50:34.949Z,5.69
2017-03-22T06:51:15.974Z,5.59
2017-03-22T06:51:56.924Z,5.62
2017-03-22T06:52:37.365Z,5.72
2017-03-22T06:53:20.383Z,5.74
2017-03-22T06:54:02.208Z,5.74
2017-03-22T06:54:43.479Z,5.77
2017-03-22T06:55:24.639Z,5.81
2017-03-22T06:56:07.743Z,5.83
2017-03-22T06:56:48.850Z,5.9
2017-03-22T06:57:30.898Z,5.88
2017-03-22T06:58:11.340Z,6.02
2017-03-22T06:58:51.790Z,6.02
2017-03-22T06:59:32.175Z,5.99
2017-03-22T07:00:13.221Z,6.09
2017-03-22T07:00:56.137Z,6.02
2017-03-22T07:01:36.613Z,6.13
2017-03-22T07:02:16.999Z,6.1
2017-03-22T07:03:00.103Z,6.13
2017-03-22T07:03:42.130Z,6.12
2017-03-22T07:04:23.384Z,6.15
2017-03-22T07:05:05.104Z,6.12
2017-03-22T07:05:47.182Z,6.16
2017-03-22T07:06:27.684Z,6.15
2017-03-22T07:07:09.774Z,6.16
2017-03-22T07:07:50.181Z,6.15
2017-03-22T07:08:30.630Z,6.12
2017-03-22T07:09:11.022Z,6.15
2017-03-22T07:09:51.434Z,6.1
2017-03-22T07:10:33.220Z,6.2
2017-03-22T07:11:14.496Z,6.2
2017-03-22T07:11:55.608Z,6.19
2017-03-22T07:12:36.149Z,6.19
2017-03-22T07:13:16.571Z,6.19
2017-03-22T07:13:57.012Z,6.31
2017-03-22T07:14:37.616Z,6.29
2017-03-22T07:15:20.704Z,6.29
2017-03-22T07:16:01.137Z,6.39
2017-03-22T07:16:41.531Z,6.41
2017-03-22T07:17:22.966Z,6.49
2017-03-22T07:18:03.385Z,6.47
2017-03-22T07:18:44.786Z,6.43
2017-03-22T07:22:33.829Z,6.6
2017-03-22T07:23:19.559Z,6.57
2017-03-22T07:24:04.408Z,6.6
2017-03-22T07:24:45.317Z,6.67
2017-03-22T07:25:29.186Z,6.62
2017-03-22T07:26:11.235Z,6.62
2017-03-22T07:26:51.721Z,6.72
2017-03-22T07:27:33.055Z,6.75
2017-03-22T07:28:16.212Z,6.78
2017-03-22T07:28:56.681Z,6.82
2017-03-22T07:29:41.708Z,6.77
2017-03-22T07:30:25.115Z,6.85
2017-03-22T07:31:05.445Z,6.87
2017-03-22T07:31:46.923Z,6.87
2017-03-22T07:32:28.094Z,6.95
2017-03-22T07:33:08.485Z,6.97
2017-03-22T07:34:59.021Z,7.03
2017-03-22T07:35:43.988Z,7.01
2017-03-22T07:36:27.812Z,7.21
2017-03-22T07:37:09.180Z,7.18
2017-03-22T07:37:53.322Z,7.31
2017-03-22T07:38:36.261Z,7.28
2017-03-22T07:39:18.257Z,7.31
2017-03-22T07:40:00.641Z,7.36
2017-03-22T07:40:41.672Z,7.37
2017-03-22T07:41:22.659Z,7.44
2017-03-22T07:42:04.073Z,7.39
2017-03-22T07:42:44.399Z,7.39
2017-03-22T07:43:25.638Z,7.44
2017-03-22T07:44:07.046Z,7.43
2017-03-22T07:44:50.401Z,7.44
2017-03-22T07:47:07.802Z,7.51
2017-03-22T07:47:49.721Z,7.56
2017-03-22T07:48:31.522Z,7.64
2017-03-22T07:49:11.965Z,7.74
2017-03-22T07:49:53.296Z,7.75
2017-03-22T07:50:34.320Z,7.84
2017-03-22T07:51:20.535Z,7.98
2017-03-22T07:52:03.809Z,7.95
2017-03-22T07:52:47.015Z,8.06
2017-03-22T07:55:02.356Z,8.14
2017-03-22T07:55:44.206Z,8.26
2017-03-22T07:56:24.378Z,8.23
2017-03-22T07:57:04.964Z,8.26
2017-03-22T07:57:45.923Z,8.28
2017-03-22T07:58:26.234Z,8.38
2017-03-22T07:59:07.639Z,8.32
2017-03-22T07:59:49.742Z,8.35
2017-03-22T08:00:30.819Z,8.39
2017-03-22T08:01:11.230Z,8.46
2017-03-22T08:01:51.661Z,8.49
2017-03-22T08:02:32.135Z,8.44
2017-03-22T08:03:12.515Z,8.56
2017-03-22T08:03:52.994Z,8.53
2017-03-22T08:04:34.196Z,8.59
2017-03-22T08:05:14.685Z,8.68
2017-03-22T08:05:55.090Z,8.74
2017-03-22T08:06:35.536Z,8.77
2017-03-22T08:07:18.086Z,8.78
2017-03-22T08:07:58.513Z,8.92
2017-03-22T08:08:38.930Z,8.99
2017-03-22T08:09:19.373Z,9
2017-03-22T08:09:59.719Z,9
2017-03-22T08:10:40.786Z,9.15
2017-03-22T08:11:21.248Z,9.12
2017-03-22T08:12:02.238Z,9.18
2017-03-22T08:12:42.637Z,9.13
2017-03-22T08:13:24.751Z,9.19
2017-03-22T08:14:05.940Z,9.18
2017-03-22T08:14:47.205Z,9.16
2017-03-22T08:15:28.287Z,9.16
2017-03-22T08:16:09.276Z,9.16
2017-03-22T08:16:50.356Z,9.21
2017-03-22T08:17:34.713Z,9.13
2017-03-22T08:18:15.893Z,9.15
2017-03-22T08:18:57.215Z,9.19
2017-03-22T08:19:37.611Z,9.19
2017-03-22T08:20:18.578Z,9.22
2017-03-22T08:20:59.026Z,9.34
2017-03-22T08:21:39.516Z,9.44
2017-03-22T08:22:19.908Z,9.39
2017-03-22T08:23:01.097Z,9.48
2017-03-22T08:23:42.307Z,9.55
2017-03-22T08:24:23.714Z,9.54
2017-03-22T08:25:05.638Z,9.52
2017-03-22T08:25:49.744Z,9.59
2017-03-22T08:26:30.107Z,9.7
2017-03-22T08:27:13.349Z,9.72
2017-03-22T08:27:55.135Z,9.67
2017-03-22T08:28:37.450Z,9.72
2017-03-22T08:29:21.782Z,9.82
2017-03-22T08:30:02.737Z,9.85
2017-03-22T08:30:43.255Z,9.91
2017-03-22T08:31:23.640Z,9.91
2017-03-22T08:32:04.617Z,9.92
2017-03-22T08:32:45.876Z,9.99
2017-03-22T08:33:32.757Z,10
2017-03-22T08:34:16.699Z,9.92
2017-03-22T08:34:57.681Z,9.92
2017-03-22T08:35:39.608Z,10
2017-03-22T08:36:20.728Z,10.03
2017-03-22T08:37:03.829Z,10
2017-03-22T08:37:45.217Z,10.03
2017-03-22T08:38:25.650Z,10.18
2017-03-22T08:39:07.013Z,10.21
2017-03-22T08:39:49.200Z,10.13
2017-03-22T08:40:31.118Z,10.23
2017-03-22T08:41:12.212Z,10.3
2017-03-22T08:41:53.568Z,10.45
2017-03-22T08:42:34.663Z,10.41
2017-03-22T08:43:19.742Z,10.48
2017-03-22T08:44:06.628Z,10.46
2017-03-22T08:44:51.778Z,10.55
2017-03-22T08:45:35.710Z,10.69
2017-03-22T08:46:17.789Z,10.69
2017-03-22T08:46:58.199Z,10.75
2017-03-22T08:47:38.597Z,10.94
2017-03-22T08:48:23.605Z,10.95
2017-03-22T08:49:06.725Z,11.07
2017-03-22T08:49:47.138Z,11.16
2017-03-22T08:50:27.588Z,11.16
2017-03-22T08:51:08.005Z,11.18
2017-03-22T08:51:48.396Z,11.34
2017-03-22T08:52:28.814Z,11.38
2017-03-22T08:53:09.299Z,11.45
2017-03-22T08:53:49.795Z,11.56
2017-03-22T08:54:30.734Z,11.67
2017-03-22T08:55:12.945Z,11.6
2017-03-22T08:55:54.404Z,11.7
2017-03-22T08:56:34.839Z,11.74
2017-03-22T08:57:15.892Z,11.78
2017-03-22T08:57:56.852Z,11.83
2017-03-22T08:58:37.211Z,11.91
2017-03-22T08:59:17.667Z,11.89
2017-03-22T08:59:58.143Z,11.97
2017-03-22T09:00:39.198Z,12.07
2017-03-22T09:01:19.766Z,12.05
2017-03-22T09:02:01.949Z,12
2017-03-22T09:02:42.383Z,11.97
2017-03-22T09:03:22.800Z,12.08
2017-03-22T09:04:04.709Z,11.99
2017-03-22T09:04:46.802Z,12.03
2017-03-22T09:05:28.719Z,12.02
2017-03-22T09:06:09.138Z,12.08
2017-03-22T09:06:49.554Z,12.05
2017-03-22T09:07:30.619Z,12.07
2017-03-22T09:08:11.705Z,12.18
2017-03-22T09:08:52.161Z,12.11
2017-03-22T09:09:32.559Z,12.12
2017-03-22T09:10:12.917Z,12.17
2017-03-22T09:10:53.371Z,12.14
2017-03-22T09:11:33.755Z,12.1
2017-03-22T09:12:14.193Z,12.03
2017-03-22T09:12:54.586Z,11.96
2017-03-22T09:13:35.005Z,11.86
2017-03-22T09:14:15.488Z,11.76
2017-03-22T09:14:55.860Z,11.62
2017-03-22T09:15:36.274Z,11.63
2017-03-22T09:16:16.691Z,11.55
2017-03-22T09:16:57.097Z,11.51
2017-03-22T09:17:37.541Z,11.55
2017-03-22T09:18:18.894Z,11.55
2017-03-22T09:18:59.874Z,11.62
2017-03-22T09:19:40.238Z,11.7
2017-03-22T09:20:20.635Z,11.74
2017-03-22T09:21:01.045Z,11.83
2017-03-22T09:21:42.306Z,11.99
2017-03-22T09:22:23.465Z,12.15
2017-03-22T09:23:03.878Z,12.29
2017-03-22T09:23:45.180Z,12.35
2017-03-22T09:24:26.483Z,12.37
2017-03-22T09:25:06.896Z,12.53
2017-03-22T09:25:47.274Z,12.61
2017-03-22T09:26:27.673Z,12.54
2017-03-22T09:27:08.141Z,12.63
2017-03-22T09:27:48.568Z,12.62
2017-03-22T09:28:28.971Z,12.73
2017-03-22T09:29:10.002Z,12.8
2017-03-22T09:29:50.368Z,12.86
2017-03-22T09:30:30.786Z,12.84
2017-03-22T09:31:11.163Z,12.83
2017-03-22T09:31:51.652Z,12.81
2017-03-22T09:32:32.063Z,12.93
2017-03-22T09:33:12.463Z,12.93
2017-03-22T09:33:52.896Z,12.94
2017-03-22T09:36:06.531Z,13.09
2017-03-22T09:36:46.831Z,13.03
2017-03-22T09:37:27.798Z,13.23
2017-03-22T09:38:08.218Z,13.58
2017-03-22T09:38:49.427Z,13.85
2017-03-22T09:39:31.484Z,14.16
2017-03-22T09:40:11.945Z,14.36
2017-03-22T09:40:52.336Z,14.55
2017-03-22T09:41:32.741Z,14.85
2017-03-22T09:42:13.130Z,15.32
2017-03-22T09:42:53.506Z,15.54
2017-03-22T09:43:33.964Z,15.78
2017-03-22T09:44:14.374Z,15.92
2017-03-22T09:44:54.757Z,15.98
2017-03-22T09:45:36.818Z,15.9
2017-03-22T09:46:17.253Z,15.92
2017-03-22T09:47:09.474Z,16.21
2017-03-22T09:47:49.921Z,16.51
2017-03-22T09:48:30.367Z,16.92
2017-03-22T09:49:11.691Z,17.2
2017-03-22T09:49:52.045Z,17.54
2017-03-22T09:50:32.474Z,17.84
2017-03-22T09:51:13.839Z,18.08
2017-03-22T09:54:34.854Z,18.43
2017-03-22T09:55:15.244Z,18.27
2017-03-22T09:55:55.697Z,17.95
2017-03-22T09:56:36.824Z,17.71
2017-03-22T09:57:17.219Z,17.47
2017-03-22T09:57:58.228Z,17.09
2017-03-22T09:58:38.629Z,16.77
2017-03-22T09:59:19.069Z,16.4
2017-03-22T09:59:59.529Z,16.05
2017-03-22T10:00:39.901Z,15.7
2017-03-22T10:01:20.327Z,15.44
2017-03-22T10:02:03.273Z,15
2017-03-22T10:02:43.627Z,14.77
2017-03-22T10:03:24.936Z,14.44
2017-03-22T10:04:06.395Z,14.19
2017-03-22T10:04:48.353Z,14.04
2017-03-22T10:05:28.738Z,13.75
2017-03-22T10:06:09.191Z,13.62
2017-03-22T10:06:49.592Z,13.3
2017-03-22T10:07:31.623Z,13.3
2017-03-22T10:08:12.020Z,13.24
2017-03-22T10:08:52.418Z,13.24
2017-03-22T10:09:32.883Z,13.3
2017-03-22T10:10:13.231Z,13.36
2017-03-22T10:10:53.616Z,13.54
2017-03-22T10:11:33.995Z,13.58
2017-03-22T10:12:14.443Z,13.68
2017-03-22T10:12:54.946Z,13.76
2017-03-22T10:13:36.050Z,13.83
2017-03-22T10:14:17.279Z,13.91
2017-03-22T10:14:57.685Z,14.01
2017-03-22T10:15:39.170Z,14.11
2017-03-22T10:16:20.950Z,14.23
2017-03-22T10:17:01.391Z,14.36
2017-03-22T10:17:42.339Z,14.62
2017-03-22T10:18:23.254Z,14.93
2017-03-22T10:19:03.666Z,15.27
2017-03-22T10:19:44.082Z,15.45
2017-03-22T10:20:24.510Z,15.76
2017-03-22T10:21:05.104Z,16.06
2017-03-22T10:21:45.486Z,16.34
2017-03-22T10:22:25.875Z,16.54
2017-03-22T10:23:06.349Z,16.72
2017-03-22T10:23:46.806Z,16.8
2017-03-22T10:24:27.315Z,16.82
2017-03-22T10:25:08.235Z,16.92
2017-03-22T10:25:49.511Z,17.04
2017-03-22T10:26:29.944Z,17.14
2017-03-22T10:27:11.221Z,17.09
2017-03-22T10:27:51.661Z,17.12
2017-03-22T10:28:32.062Z,16.82
2017-03-22T10:29:12.545Z,16.54
2017-03-22T10:29:53.528Z,16.37
2017-03-22T10:30:34.062Z,16.06
2017-03-22T10:31:14.511Z,15.91
2017-03-22T10:31:54.874Z,15.48
2017-03-22T10:32:36.079Z,15.33
2017-03-22T10:33:16.525Z,14.87
2017-03-22T10:33:57.229Z,14.67
2017-03-22T10:34:37.725Z,14.53
2017-03-22T10:35:18.116Z,14.31
2017-03-22T10:36:00.818Z,14.11
2017-03-22T10:36:43.876Z,13.97
2017-03-22T10:37:24.256Z,13.73
2017-03-22T10:38:04.668Z,13.65
2017-03-22T10:38:45.905Z,13.61
2017-03-22T10:39:27.089Z,13.46
2017-03-22T10:40:08.507Z,13.31
2017-03-22T10:40:48.935Z,13.16
2017-03-22T10:41:31.262Z,13.13
2017-03-22T10:42:12.489Z,12.87
2017-03-22T10:42:55.655Z,12.75
2017-03-22T10:43:37.034Z,12.66
2017-03-22T10:44:17.414Z,12.5
2017-03-22T10:44:57.823Z,12.23
2017-03-22T10:45:38.229Z,12.1
2017-03-22T10:46:18.700Z,11.83
2017-03-22T10:46:59.147Z,11.63
2017-03-22T10:47:40.732Z,11.55
2017-03-22T10:48:22.598Z,11.45
2017-03-22T10:49:03.044Z,11.51
2017-03-22T10:49:44.009Z,11.45
2017-03-22T10:50:24.387Z,11.4
2017-03-22T10:51:04.842Z,11.44
2017-03-22T10:51:45.252Z,11.51
2017-03-22T10:52:25.724Z,11.49
2017-03-22T10:53:07.536Z,11.45
2017-03-22T10:53:47.916Z,11.51
2017-03-22T10:54:28.817Z,11.43
2017-03-22T10:55:09.940Z,11.49
2017-03-22T10:55:50.389Z,11.62
2017-03-22T10:56:31.362Z,11.59
2017-03-22T10:57:12.572Z,11.62
2017-03-22T10:57:52.969Z,11.73
2017-03-22T10:58:33.430Z,11.7
2017-03-22T10:59:14.160Z,11.7
2017-03-22T10:59:57.389Z,11.85
2017-03-22T11:00:38.960Z,11.97
2017-03-22T11:01:19.333Z,12.1
2017-03-22T11:02:00.421Z,12.23
2017-03-22T11:02:40.808Z,12.28
2017-03-22T11:03:21.282Z,12.39
2017-03-22T11:04:01.735Z,12.51
2017-03-22T11:04:42.338Z,12.5
2017-03-22T11:05:23.539Z,12.57
2017-03-22T11:06:03.980Z,12.68
2017-03-22T11:06:44.540Z,12.66
2017-03-22T11:07:24.997Z,12.58
2017-03-22T11:08:05.918Z,12.65
2017-03-22T11:08:46.284Z,12.75
2017-03-22T11:09:27.659Z,12.63
2017-03-22T11:10:08.055Z,12.63
2017-03-22T11:10:49.379Z,12.63
2017-03-22T11:11:30.519Z,12.66
2017-03-22T11:12:12.539Z,12.65
2017-03-22T11:12:53.031Z,12.63
2017-03-22T11:13:33.448Z,12.58
2017-03-22T11:14:13.923Z,12.69
2017-03-22T11:14:54.895Z,12.48
2017-03-22T11:15:35.299Z,12.35
2017-03-22T11:16:15.690Z,12.25
2017-03-22T11:16:56.129Z,12.18
2017-03-22T11:17:37.493Z,12.08
2017-03-22T11:18:18.616Z,11.99
2017-03-22T11:18:58.988Z,11.89
2017-03-22T11:19:39.461Z,11.85
2017-03-22T11:20:19.804Z,11.76
2017-03-22T11:21:00.928Z,11.65
2017-03-22T11:21:42.378Z,11.59
2017-03-22T11:22:22.794Z,11.49
2017-03-22T11:23:03.197Z,11.49
2017-03-22T11:23:43.620Z,11.27
2017-03-22T11:24:24.074Z,11.26
2017-03-22T11:25:05.359Z,11.22
2017-03-22T11:25:45.632Z,11.1
2017-03-22T11:26:26.052Z,10.92
2017-03-22T11:27:07.291Z,10.95
2017-03-22T11:27:48.696Z,10.94
2017-03-22T11:28:29.122Z,11
2017-03-22T11:29:09.551Z,11.02
2017-03-22T11:29:49.993Z,11
2017-03-22T11:30:30.389Z,11
2017-03-22T11:31:11.508Z,11.05
2017-03-22T11:31:52.442Z,10.98
2017-03-22T11:32:33.370Z,11
2017-03-22T11:33:13.838Z,10.98
2017-03-22T11:33:54.232Z,10.86
2017-03-22T11:34:34.658Z,10.84
2017-03-22T11:35:15.110Z,10.67
2017-03-22T11:35:55.483Z,10.55
2017-03-22T11:36:35.913Z,10.48
2017-03-22T11:37:16.384Z,10.46
2017-03-22T11:37:56.770Z,10.49
2017-03-22T11:38:37.209Z,10.28
2017-03-22T11:39:17.652Z,10.28
2017-03-22T11:39:58.040Z,10.3
2017-03-22T11:40:38.400Z,10.28
2017-03-22T11:41:18.859Z,10.28
2017-03-22T11:41:59.881Z,10.21
2017-03-22T11:42:40.962Z,10.17
2017-03-22T11:43:21.414Z,10.13
2017-03-22T11:44:01.807Z,10.2
2017-03-22T11:44:42.282Z,10.2
2017-03-22T11:45:22.820Z,10.13
2017-03-22T11:46:03.156Z,10.17
2017-03-22T11:46:44.486Z,10.17
2017-03-22T11:47:25.775Z,10.2
2017-03-22T11:48:06.200Z,10.25
2017-03-22T11:48:48.526Z,10.12
2017-03-22T11:49:28.937Z,10.15
2017-03-22T11:50:09.311Z,10.17
2017-03-22T11:50:49.729Z,10.03
2017-03-22T11:51:30.110Z,10.03
2017-03-22T11:52:10.568Z,10.06
2017-03-22T11:52:51.012Z,9.99
2017-03-22T11:53:31.386Z,10.02
2017-03-22T11:54:11.824Z,9.88
2017-03-22T11:54:52.294Z,9.85
2017-03-22T11:55:32.701Z,9.87
2017-03-22T11:56:14.101Z,9.82
2017-03-22T11:56:57.378Z,9.81
2017-03-22T11:57:38.269Z,9.76
2017-03-22T11:58:18.699Z,9.73
2017-03-22T11:58:59.766Z,9.74
2017-03-22T11:59:40.172Z,9.69
2017-03-22T12:00:20.696Z,9.59
2017-03-22T12:01:01.152Z,9.69
2017-03-22T12:01:41.532Z,9.69
2017-03-22T12:02:21.940Z,9.55
2017-03-22T12:03:02.338Z,9.58
2017-03-22T12:03:44.443Z,9.56
2017-03-22T12:04:25.580Z,9.49
2017-03-22T12:05:06.794Z,9.54
2017-03-22T12:05:48.828Z,9.49
2017-03-22T12:06:29.782Z,9.42
2017-03-22T12:07:10.217Z,9.34
2017-03-22T12:07:52.323Z,9.31
2017-03-22T12:08:34.307Z,9.39
2017-03-22T12:09:15.543Z,9.37
2017-03-22T12:09:55.916Z,9.37
2017-03-22T12:10:36.333Z,9.36
2017-03-22T12:11:16.710Z,9.33
2017-03-22T12:11:57.120Z,9.37
2017-03-22T12:12:38.304Z,9.47
2017-03-22T12:13:19.388Z,9.47
2017-03-22T12:14:00.539Z,9.49
2017-03-22T12:14:41.032Z,9.49
2017-03-22T12:15:21.391Z,9.48
2017-03-22T12:16:01.813Z,9.52
2017-03-22T12:16:42.216Z,9.48
2017-03-22T12:17:22.706Z,9.48
2017-03-22T12:18:03.108Z,9.51
2017-03-22T12:18:43.592Z,9.52
2017-03-22T12:19:24.914Z,9.54
2017-03-22T12:20:07.079Z,9.66
2017-03-22T12:20:47.543Z,9.66
2017-03-22T12:21:27.948Z,9.64
2017-03-22T12:22:08.410Z,9.69
2017-03-22T12:22:49.807Z,9.63
2017-03-22T12:23:30.803Z,9.69
2017-03-22T12:24:12.781Z,9.66
2017-03-22T12:24:54.931Z,9.64
2017-03-22T12:25:36.889Z,9.64
2017-03-22T12:26:17.304Z,9.64
2017-03-22T12:26:57.707Z,9.67
2017-03-22T12:27:38.099Z,9.67
2017-03-22T12:28:18.473Z,9.62
2017-03-22T12:28:59.493Z,9.67
2017-03-22T12:29:41.902Z,9.54
2017-03-22T12:30:22.336Z,9.55
2017-03-22T12:31:03.446Z,9.59
2017-03-22T12:31:46.277Z,9.55
2017-03-22T12:32:27.686Z,9.56
2017-03-22T12:33:09.068Z,9.58
2017-03-22T12:33:49.497Z,9.55
2017-03-22T12:34:31.824Z,9.56
2017-03-22T12:35:13.129Z,9.48
2017-03-22T12:35:53.538Z,9.47
2017-03-22T12:36:37.369Z,9.58
2017-03-22T12:37:18.742Z,9.55
2017-03-22T12:37:59.133Z,9.54
2017-03-22T12:38:40.405Z,9.49
2017-03-22T12:39:20.802Z,9.54
2017-03-22T12:40:02.033Z,9.54
2017-03-22T12:40:43.394Z,9.55
2017-03-22T12:41:23.757Z,9.59
2017-03-22T12:42:05.199Z,9.54
2017-03-22T12:42:47.289Z,9.66
2017-03-22T12:43:28.306Z,9.59
2017-03-22T12:44:08.767Z,9.74
2017-03-22T12:44:49.214Z,9.73
2017-03-22T12:45:29.627Z,9.74
2017-03-22T12:46:10.111Z,9.74
2017-03-22T12:46:50.540Z,9.7
2017-03-22T12:47:33.392Z,9.74
2017-03-22T12:48:14.334Z,9.76
2017-03-22T12:48:54.826Z,9.74
2017-03-22T12:49:35.908Z,9.73
2017-03-22T12:50:16.333Z,9.72
2017-03-22T12:50:57.406Z,9.72
2017-03-22T12:51:37.879Z,9.81
2017-03-22T12:52:18.925Z,9.76
2017-03-22T12:53:01.893Z,9.77
2017-03-22T12:53:42.830Z,9.82
2017-03-22T12:54:23.245Z,9.91
2017-03-22T12:55:03.689Z,10.03
2017-03-22T12:55:45.779Z,10.06
2017-03-22T12:56:26.245Z,10.05
2017-03-22T12:57:08.392Z,10.25
2017-03-22T12:57:48.966Z,10.23
2017-03-22T12:58:35.787Z,10.24
2017-03-22T12:59:16.187Z,10.33
2017-03-22T12:59:56.619Z,10.34
2017-03-22T13:00:37.820Z,10.21
2017-03-22T13:01:20.797Z,10.33
2017-03-22T13:02:01.257Z,10.27
2017-03-22T13:02:41.701Z,10.23
2017-03-22T13:03:24.057Z,10.24
2017-03-22T13:04:05.025Z,10.2
2017-03-22T13:04:45.518Z,10.27
2017-03-22T13:06:58.693Z,10.31
2017-03-22T13:07:43.967Z,10.17
2017-03-22T13:08:30.966Z,10.21
2017-03-22T13:09:17.963Z,10.18
2017-03-22T13:10:00.402Z,10.3
2017-03-22T13:10:46.445Z,10.21
2017-03-22T13:11:28.404Z,10.3
2017-03-22T13:12:08.783Z,10.27
2017-03-22T13:12:49.199Z,10.15
2017-03-22T13:13:31.619Z,10.13
2017-03-22T13:14:14.665Z,10.12
2017-03-22T13:14:56.210Z,10.1
2017-03-22T13:15:36.588Z,10.03
2017-03-22T13:16:16.992Z,10.05
2017-03-22T13:16:59.400Z,10.05
2017-03-22T13:17:41.615Z,10.03
2017-03-22T13:18:22.083Z,9.97
2017-03-22T13:19:02.724Z,10.03
2017-03-22T13:19:46.912Z,9.9
2017-03-22T13:20:30.921Z,9.94
2017-03-22T13:21:14.902Z,9.85
2017-03-22T13:21:55.330Z,9.82
2017-03-22T13:22:35.713Z,9.81
2017-03-22T13:23:17.233Z,9.7
2017-03-22T13:24:00.943Z,9.8
2017-03-22T13:24:41.385Z,9.77
2017-03-22T13:25:22.779Z,9.8
2017-03-22T13:26:06.000Z,9.8
2017-03-22T13:26:49.103Z,9.69
2017-03-22T13:27:32.410Z,9.8
2017-03-22T13:28:21.524Z,9.74
2017-03-22T13:29:01.978Z,9.74
2017-03-22T13:29:45.027Z,9.76
2017-03-22T13:30:27.132Z,9.8
2017-03-22T13:31:07.678Z,9.73
2017-03-22T13:31:50.794Z,9.74